createdAt,value
2022-10-22T00:02:07.860Z,96.96
2022-10-22T00:04:35.628Z,96.83
2022-10-22T00:07:06.334Z,96.87
2022-10-22T00:09:39.065Z,96.53
2022-10-22T00:12:15.375Z,96.41
2022-10-22T00:14:49.393Z,96.65
2022-10-22T00:17:19.752Z,96.38
2022-10-22T00:20:11.487Z,96.38
2022-10-22T00:22:45.119Z,96.54
2022-10-22T00:25:24.926Z,96.51
2022-10-22T00:27:51.343Z,96.43
2022-10-22T00:30:17.857Z,96.14
2022-10-22T00:32:44.382Z,96.29
2022-10-22T00:35:21.060Z,96.17
2022-10-22T00:37:55.680Z,95.99
2022-10-22T00:40:22.065Z,96.22
2022-10-22T00:42:48.538Z,96.55
2022-10-22T00:45:23.541Z,96.48
2022-10-22T00:48:10.489Z,96.78
2022-10-22T00:50:48.537Z,96.70
2022-10-22T00:53:36.654Z,96.92
2022-10-22T00:56:03.899Z,96.99
2022-10-22T00:58:35.038Z,97.00
2022-10-22T01:01:02.135Z,97.20
2022-10-22T01:03:41.019Z,97.27
2022-10-22T01:06:07.881Z,97.09
2022-10-22T01:08:55.975Z,97.54
2022-10-22T01:11:52.598Z,97.27
2022-10-22T01:14:42.796Z,97.56
2022-10-22T01:17:39.872Z,97.27
2022-10-22T01:20:34.053Z,97.46
2022-10-22T01:23:17.311Z,97.52
2022-10-22T01:25:54.025Z,97.84
2022-10-22T01:28:44.100Z,97.34
2022-10-22T01:31:16.441Z,97.67
2022-10-22T01:33:45.959Z,97.33
2022-10-22T01:36:19.899Z,97.57
2022-10-22T01:38:49.621Z,97.77
2022-10-22T01:41:16.272Z,97.59
2022-10-22T01:43:50.937Z,97.84
2022-10-22T01:46:19.174Z,97.83
2022-10-22T01:49:05.918Z,97.65
2022-10-22T01:52:18.686Z,97.62
2022-10-22T01:55:05.369Z,97.70
2022-10-22T01:58:17.981Z,97.49
2022-10-22T02:01:16.402Z,97.33
2022-10-22T02:03:52.850Z,97.14
2022-10-22T02:06:22.393Z,97.07
2022-10-22T02:08:53.110Z,97.01
2022-10-22T02:11:32.959Z,97.47
2022-10-22T02:14:04.354Z,97.02
2022-10-22T02:16:35.922Z,96.81
2022-10-22T02:19:11.356Z,97.28
2022-10-22T02:21:37.865Z,97.17
2022-10-22T02:24:04.713Z,96.90
2022-10-22T02:27:12.151Z,97.12
2022-10-22T02:29:47.401Z,96.94
2022-10-22T02:32:19.661Z,96.84
2022-10-22T02:34:48.003Z,96.65
2022-10-22T02:37:17.267Z,96.97
2022-10-22T02:39:44.493Z,96.80
2022-10-22T02:42:29.547Z,97.18
2022-10-22T02:44:57.105Z,96.81
2022-10-22T02:47:25.644Z,97.10
2022-10-22T02:49:51.989Z,96.96
2022-10-22T02:52:22.566Z,97.37
2022-10-22T02:55:15.934Z,97.28
2022-10-22T02:58:08.605Z,97.26
2022-10-22T03:00:42.418Z,97.20
2022-10-22T03:03:08.818Z,97.30
2022-10-22T03:05:35.448Z,97.18
2022-10-22T03:08:01.900Z,97.32
2022-10-22T03:10:28.275Z,97.30
2022-10-22T03:12:54.647Z,97.43
2022-10-22T03:15:21.013Z,97.06
2022-10-22T03:17:47.457Z,97.37
2022-10-22T03:20:19.011Z,97.51
2022-10-22T03:22:47.656Z,97.27
2022-10-22T03:25:22.462Z,97.51
2022-10-22T03:27:51.897Z,97.09
2022-10-22T03:30:18.655Z,97.41
2022-10-22T03:32:45.093Z,97.01
2022-10-22T03:35:26.517Z,97.03
2022-10-22T03:38:01.206Z,97.27
2022-10-22T03:40:27.653Z,97.19
2022-10-22T03:42:54.008Z,97.38
2022-10-22T03:45:30.566Z,97.00
2022-10-22T03:47:56.959Z,97.47
2022-10-22T03:50:23.340Z,97.65
2022-10-22T03:53:07.189Z,97.83
2022-10-22T03:55:34.637Z,97.62
2022-10-22T03:58:05.388Z,98.21
2022-10-22T04:00:52.228Z,97.94
2022-10-22T04:03:44.680Z,97.79
2022-10-22T04:06:12.911Z,97.77
2022-10-22T04:08:40.894Z,97.41
2022-10-22T04:11:39.375Z,97.65
2022-10-22T04:14:12.976Z,97.90
2022-10-22T04:16:40.636Z,97.78
2022-10-22T04:19:07.482Z,97.96
2022-10-22T04:21:34.266Z,97.75
2022-10-22T04:24:00.702Z,97.66
2022-10-22T04:26:28.168Z,97.99
2022-10-22T04:28:54.543Z,97.82
2022-10-22T04:31:23.649Z,97.87
2022-10-22T04:33:58.660Z,97.48
2022-10-22T04:36:25.801Z,97.59
2022-10-22T04:39:11.532Z,97.64
2022-10-22T04:42:01.915Z,97.78
2022-10-22T04:45:10.917Z,97.69
2022-10-22T04:47:43.798Z,97.89
2022-10-22T04:50:10.304Z,97.84
2022-10-22T04:52:36.657Z,98.03
2022-10-22T04:55:04.687Z,97.97
2022-10-22T04:57:40.494Z,97.99
2022-10-22T05:00:11.645Z,98.06
2022-10-22T05:02:38.117Z,98.13
2022-10-22T05:05:29.490Z,97.90
2022-10-22T05:07:56.928Z,97.88
2022-10-22T05:10:39.685Z,98.16
2022-10-22T05:13:22.312Z,97.88
2022-10-22T05:15:51.997Z,97.93
2022-10-22T05:18:21.761Z,98.09
2022-10-22T05:20:49.079Z,97.93
2022-10-22T05:23:15.448Z,97.69
2022-10-22T05:25:41.812Z,97.99
2022-10-22T05:28:08.267Z,98.03
2022-10-22T05:30:35.393Z,97.52
2022-10-22T05:33:01.741Z,97.94
2022-10-22T05:35:28.099Z,97.67
2022-10-22T05:40:30.640Z,97.54
2022-10-22T05:43:03.765Z,97.77
2022-10-22T05:45:30.201Z,97.67
2022-10-22T05:48:00.552Z,97.56
2022-10-22T05:50:28.095Z,97.60
2022-10-22T05:53:06.016Z,97.74
2022-10-22T05:55:38.857Z,97.67
2022-10-22T05:58:07.265Z,97.62
2022-10-22T06:00:53.037Z,97.56
2022-10-22T06:03:19.369Z,97.92
2022-10-22T06:05:45.853Z,97.70
2022-10-22T06:08:18.236Z,97.76
2022-10-22T06:10:52.490Z,97.58
2022-10-22T06:13:32.752Z,97.74
2022-10-22T06:15:59.122Z,98.06
2022-10-22T06:18:25.519Z,97.95
2022-10-22T06:20:51.893Z,97.68
2022-10-22T06:23:18.361Z,97.83
2022-10-22T06:25:56.577Z,97.92
2022-10-22T06:31:04.848Z,97.95
2022-10-22T06:33:45.285Z,97.69
2022-10-22T06:36:18.069Z,97.50
2022-10-22T06:38:44.609Z,97.79
2022-10-22T06:41:28.812Z,97.86
2022-10-22T06:43:57.363Z,97.63
2022-10-22T06:46:25.051Z,97.74
2022-10-22T06:48:53.888Z,97.90
2022-10-22T06:51:21.211Z,98.04
2022-10-22T06:53:54.345Z,97.90
2022-10-22T06:56:28.669Z,98.14
2022-10-22T06:59:25.835Z,98.08
2022-10-22T07:01:57.376Z,98.28
2022-10-22T07:04:23.837Z,97.94
2022-10-22T07:06:51.381Z,98.04
2022-10-22T07:11:45.969Z,98.08
2022-10-22T07:14:23.011Z,98.06
2022-10-22T07:16:50.404Z,98.09
2022-10-22T07:19:16.768Z,98.20
2022-10-22T07:21:43.140Z,98.29
2022-10-22T07:24:13.695Z,98.23
2022-10-22T07:26:42.131Z,98.19
2022-10-22T07:29:09.669Z,97.99
2022-10-22T07:31:36.299Z,97.94
2022-10-22T07:34:07.052Z,98.09
2022-10-22T07:36:39.571Z,98.35
2022-10-22T07:39:05.940Z,98.53
2022-10-22T07:41:40.389Z,98.04
2022-10-22T07:44:11.916Z,98.07
2022-10-22T07:46:38.543Z,98.28
2022-10-22T07:49:17.584Z,98.16
2022-10-22T07:51:49.645Z,98.14
2022-10-22T07:54:17.263Z,97.91
2022-10-22T07:56:46.965Z,98.16
2022-10-22T07:59:13.417Z,98.29
2022-10-22T08:04:26.413Z,98.32
2022-10-22T08:13:35.218Z,98.11
2022-10-22T08:16:01.778Z,98.11
2022-10-22T08:18:29.905Z,98.66
2022-10-22T08:20:57.683Z,98.31
2022-10-22T08:23:32.106Z,98.19
2022-10-22T08:26:02.947Z,98.35
2022-10-22T08:28:46.696Z,98.32
2022-10-22T08:31:25.265Z,98.58
2022-10-22T08:34:02.784Z,98.09
2022-10-22T08:36:29.202Z,98.10
2022-10-22T08:38:55.674Z,98.07
2022-10-22T08:41:30.545Z,98.61
2022-10-22T08:44:16.860Z,98.50
2022-10-22T08:47:02.614Z,98.24
2022-10-22T08:49:37.186Z,98.51
2022-10-22T08:52:22.903Z,98.09
2022-10-22T08:54:54.532Z,98.39
2022-10-22T08:57:55.095Z,98.14
2022-10-22T09:00:29.408Z,98.03
2022-10-22T09:03:14.763Z,98.04
2022-10-22T09:06:16.232Z,98.12
2022-10-22T09:08:44.113Z,97.93
2022-10-22T09:11:13.686Z,97.78
2022-10-22T09:13:42.318Z,97.41
2022-10-22T09:16:43.042Z,97.51
2022-10-22T09:19:24.093Z,97.69
2022-10-22T09:22:25.161Z,97.39
2022-10-22T09:25:44.998Z,97.29
2022-10-22T09:28:11.611Z,97.57
2022-10-22T09:30:39.950Z,98.20
2022-10-22T09:33:22.623Z,97.77
2022-10-22T09:36:15.683Z,97.37
2022-10-22T09:38:52.496Z,97.67
2022-10-22T09:41:31.596Z,97.38
2022-10-22T09:46:48.903Z,97.22
2022-10-22T09:49:37.009Z,96.91
2022-10-22T10:06:59.749Z,95.82
2022-10-22T10:09:28.111Z,95.79
2022-10-22T10:12:18.912Z,96.24
2022-10-22T10:14:54.405Z,96.17
2022-10-22T10:17:36.473Z,95.77
2022-10-22T10:20:32.256Z,95.57
2022-10-22T10:23:08.375Z,95.61
2022-10-22T10:26:09.642Z,96.36
2022-10-22T10:28:46.296Z,96.38
2022-10-22T10:31:27.793Z,95.59
2022-10-22T10:34:04.643Z,95.63
2022-10-22T10:36:48.702Z,95.47
2022-10-22T10:39:21.258Z,95.20
2022-10-22T10:42:32.776Z,94.87
2022-10-22T10:45:20.995Z,94.50
2022-10-22T10:48:26.695Z,94.40
2022-10-22T10:51:26.354Z,94.36
2022-10-22T10:54:29.343Z,93.68
2022-10-22T10:57:50.985Z,93.04
2022-10-22T11:00:20.118Z,93.34
2022-10-22T11:03:15.468Z,93.54
2022-10-22T11:05:50.303Z,93.33
2022-10-22T11:08:42.072Z,93.56
2022-10-22T11:11:40.709Z,93.40
2022-10-22T11:14:44.695Z,93.70
2022-10-22T11:17:15.952Z,93.59
2022-10-22T11:19:52.978Z,93.70
2022-10-22T11:22:29.438Z,94.20
2022-10-22T11:25:20.344Z,94.20
2022-10-22T11:28:07.821Z,93.67
2022-10-22T11:30:37.014Z,91.56
2022-10-22T11:33:11.678Z,92.07
2022-10-22T11:35:44.968Z,92.05
2022-10-22T11:38:21.045Z,92.54
2022-10-22T11:40:58.917Z,91.90
2022-10-22T11:44:11.314Z,91.77
2022-10-22T11:46:46.725Z,90.75
2022-10-22T11:49:13.098Z,90.96
2022-10-22T11:51:42.426Z,90.68
2022-10-22T11:54:46.046Z,91.12
2022-10-22T11:57:26.317Z,91.36
2022-10-22T12:00:01.004Z,90.06
2022-10-22T12:03:08.346Z,90.77
2022-10-22T12:05:35.375Z,90.29
2022-10-22T12:08:23.595Z,90.64
2022-10-22T12:11:03.215Z,90.24
2022-10-22T12:13:58.668Z,90.49
2022-10-22T12:16:55.181Z,90.37
2022-10-22T12:19:44.666Z,90.29
2022-10-22T12:22:19.536Z,89.96
2022-10-22T12:25:00.940Z,89.57
2022-10-22T12:27:41.631Z,89.50
2022-10-22T12:30:31.048Z,89.54
2022-10-22T12:33:03.029Z,89.19
2022-10-22T12:35:46.838Z,89.18
2022-10-22T12:38:20.349Z,89.52
2022-10-22T12:41:10.034Z,89.51
2022-10-22T12:43:39.623Z,89.55
2022-10-22T12:46:14.357Z,88.85
2022-10-22T12:48:44.499Z,87.02
2022-10-22T12:51:49.349Z,88.15
2022-10-22T12:54:45.899Z,86.67
2022-10-22T12:58:01.429Z,86.87
2022-10-22T13:00:54.476Z,86.71
2022-10-22T13:03:29.279Z,85.91
2022-10-22T13:06:22.912Z,85.59
2022-10-22T13:09:58.165Z,85.76
2022-10-22T13:12:56.316Z,83.08
2022-10-22T13:19:07.987Z,83.72
2022-10-22T13:21:55.337Z,83.50
2022-10-22T13:25:28.692Z,84.37
2022-10-22T13:29:17.209Z,84.22
2022-10-22T13:36:03.725Z,84.48
2022-10-22T13:46:45.949Z,84.10
2022-10-22T13:52:23.744Z,84.21
2022-10-22T13:54:57.721Z,84.85
2022-10-22T13:57:26.072Z,85.87
2022-10-22T13:59:52.638Z,86.27
2022-10-22T14:02:22.845Z,86.15
2022-10-22T14:04:49.533Z,86.64
2022-10-22T14:07:16.846Z,87.50
2022-10-22T14:10:24.210Z,87.53
2022-10-22T14:12:53.677Z,87.64
2022-10-22T14:15:45.962Z,87.87
2022-10-22T14:18:24.220Z,88.50
2022-10-22T14:20:54.298Z,88.72
2022-10-22T14:23:23.086Z,88.44
2022-10-22T14:25:52.522Z,88.53
2022-10-22T14:28:19.649Z,88.63
2022-10-22T14:30:46.897Z,88.42
2022-10-22T14:33:32.186Z,88.13
2022-10-22T14:36:00.454Z,88.84
2022-10-22T14:38:27.370Z,88.64
2022-10-22T14:40:54.856Z,88.57
2022-10-22T14:43:27.322Z,88.61
2022-10-22T14:45:54.618Z,89.09
2022-10-22T14:48:21.557Z,88.84
2022-10-22T14:50:48.453Z,88.98
2022-10-22T14:53:18.983Z,89.02
2022-10-22T14:55:47.582Z,89.46
2022-10-22T14:58:17.260Z,89.13
2022-10-22T15:00:44.210Z,89.29
2022-10-22T15:03:11.534Z,89.35
2022-10-22T15:05:53.931Z,89.92
2022-10-22T15:08:21.293Z,89.74
2022-10-22T15:11:01.535Z,90.14
2022-10-22T15:13:29.613Z,89.77
2022-10-22T15:15:57.149Z,90.66
2022-10-22T15:18:23.835Z,90.66
2022-10-22T15:21:02.805Z,91.19
2022-10-22T15:23:32.093Z,90.69
2022-10-22T15:25:59.081Z,90.72
2022-10-22T15:28:29.547Z,91.08
2022-10-22T15:30:59.191Z,91.19
2022-10-22T15:33:26.898Z,91.31
2022-10-22T15:35:53.719Z,90.96
2022-10-22T15:38:20.928Z,91.19
2022-10-22T15:40:47.876Z,91.47
2022-10-22T15:43:14.571Z,91.55
2022-10-22T15:45:41.270Z,91.45
2022-10-22T15:48:07.812Z,91.71
2022-10-22T15:50:38.742Z,91.65
2022-10-22T15:53:05.366Z,91.87
2022-10-22T15:55:31.790Z,91.56
2022-10-22T15:58:00.633Z,91.48
2022-10-22T16:00:30.133Z,91.72
2022-10-22T16:02:56.750Z,91.82
2022-10-22T16:05:23.378Z,91.82
2022-10-22T16:07:59.233Z,91.73
2022-10-22T16:10:26.065Z,91.89
2022-10-22T16:12:54.639Z,92.11
2022-10-22T16:15:22.219Z,91.72
2022-10-22T16:17:48.729Z,91.62
2022-10-22T16:20:17.471Z,91.40
2022-10-22T16:22:44.245Z,91.71
2022-10-22T16:25:15.028Z,91.83
2022-10-22T16:27:56.225Z,92.03
2022-10-22T16:30:24.855Z,91.81
2022-10-22T16:32:52.896Z,91.90
2022-10-22T16:35:20.731Z,91.67
2022-10-22T16:38:03.871Z,91.74
2022-10-22T16:40:42.234Z,91.68
2022-10-22T16:43:21.981Z,92.04
2022-10-22T16:45:50.053Z,92.19
2022-10-22T16:48:18.170Z,92.34
2022-10-22T16:50:47.913Z,92.42
2022-10-22T16:53:32.184Z,92.57
2022-10-22T16:55:58.812Z,92.50
2022-10-22T16:58:39.233Z,92.75
2022-10-22T17:01:08.925Z,92.74
2022-10-22T17:03:56.968Z,92.98
2022-10-22T17:06:26.857Z,92.82
2022-10-22T17:08:53.720Z,92.85
2022-10-22T17:11:24.402Z,92.51
2022-10-22T17:13:53.422Z,92.81
2022-10-22T17:16:24.887Z,92.56
2022-10-22T17:18:59.553Z,92.81
2022-10-22T17:21:37.663Z,92.86
2022-10-22T17:24:27.388Z,92.97
2022-10-22T17:26:56.357Z,93.03
2022-10-22T17:29:41.899Z,92.93
2022-10-22T17:32:08.462Z,92.64
2022-10-22T17:34:39.474Z,92.89
2022-10-22T17:37:16.320Z,93.12
2022-10-22T17:39:58.540Z,92.74
2022-10-22T17:42:32.265Z,93.02
2022-10-22T17:44:59.620Z,93.08
2022-10-22T17:47:28.702Z,93.00
2022-10-22T17:49:56.808Z,92.99
2022-10-22T17:53:05.491Z,93.31
2022-10-22T17:58:59.742Z,93.21
2022-10-22T18:01:53.933Z,93.29
2022-10-22T18:04:34.721Z,92.89
2022-10-22T18:07:17.124Z,93.25
2022-10-22T18:09:50.459Z,93.12
2022-10-22T18:12:18.170Z,92.96
2022-10-22T18:15:02.000Z,93.40
2022-10-22T18:17:35.836Z,93.50
2022-10-22T18:20:16.232Z,93.49
2022-10-22T18:22:46.234Z,93.57
2022-10-22T18:25:13.159Z,93.21
2022-10-22T18:27:46.004Z,93.49
2022-10-22T18:30:19.731Z,93.78
2022-10-22T18:32:46.261Z,93.55
2022-10-22T18:35:12.656Z,93.33
2022-10-22T18:37:40.150Z,93.43
2022-10-22T18:40:08.834Z,93.22
2022-10-22T18:42:39.765Z,93.45
2022-10-22T18:45:20.640Z,93.53
2022-10-22T18:48:05.615Z,93.20
2022-10-22T18:50:38.253Z,93.57
2022-10-22T18:53:04.828Z,93.29
2022-10-22T18:55:31.684Z,93.33
2022-10-22T18:58:01.199Z,93.49
2022-10-22T19:00:27.751Z,93.57
2022-10-22T19:02:54.884Z,93.57
2022-10-22T19:05:21.721Z,93.55
2022-10-22T19:07:50.633Z,93.38
2022-10-22T19:10:18.475Z,93.26
2022-10-22T20:59:56.710Z,94.98
2022-10-22T21:02:34.348Z,94.83
2022-10-22T21:05:00.778Z,94.64
2022-10-22T21:07:45.133Z,94.52
2022-10-22T21:10:11.524Z,94.20
2022-10-22T21:12:42.333Z,94.46
2022-10-22T21:15:12.500Z,94.60
2022-10-22T21:17:41.285Z,94.31
2022-10-22T21:20:22.406Z,94.45
2022-10-22T21:23:08.601Z,94.14
2022-10-22T21:25:38.492Z,94.22
2022-10-22T21:28:13.379Z,93.88
2022-10-22T21:30:52.868Z,94.56
2022-10-22T21:33:26.263Z,94.32
2022-10-22T21:35:54.408Z,94.58
2022-10-22T21:38:25.850Z,94.47
2022-10-22T21:40:52.602Z,94.47
2022-10-22T21:43:19.560Z,94.36
2022-10-22T21:45:45.911Z,94.44
2022-10-22T21:48:13.795Z,94.49
2022-10-22T21:50:44.358Z,94.37
2022-10-22T21:53:12.088Z,94.19
2022-10-22T21:55:41.043Z,94.60
2022-10-22T21:58:08.002Z,94.61
2022-10-22T22:00:35.545Z,94.71
2022-10-22T22:03:02.112Z,94.53
2022-10-22T22:05:30.596Z,94.47
2022-10-22T22:07:56.972Z,94.69
2022-10-22T22:10:25.224Z,94.63
2022-10-22T22:12:52.214Z,94.37
2022-10-22T22:15:23.665Z,94.42
2022-10-22T22:17:50.026Z,94.17
2022-10-22T22:20:16.508Z,94.28
2022-10-22T22:22:43.118Z,94.47
2022-10-22T22:25:16.875Z,94.52
2022-10-22T22:27:52.309Z,94.50
2022-10-22T22:30:22.761Z,94.17
2022-10-22T22:33:11.211Z,94.75
2022-10-22T22:35:41.682Z,94.59
2022-10-22T22:38:11.195Z,94.39
2022-10-22T22:40:41.260Z,94.32
2022-10-22T22:43:08.552Z,94.71
2022-10-22T22:45:35.594Z,94.62
2022-10-22T22:48:02.880Z,94.70
2022-10-22T22:50:29.508Z,94.64
2022-10-22T22:52:57.009Z,94.71
2022-10-22T22:55:23.377Z,94.74
2022-10-22T22:57:49.900Z,94.80
2022-10-22T23:00:17.524Z,94.69
2022-10-22T23:02:44.214Z,94.81
2022-10-22T23:05:18.101Z,94.73
2022-10-22T23:07:44.465Z,95.05
2022-10-22T23:10:15.071Z,94.64
2022-10-22T23:13:09.421Z,94.60
2022-10-22T23:15:39.490Z,94.92
2022-10-22T23:18:20.352Z,94.50
2022-10-22T23:20:46.706Z,94.74
2022-10-22T23:23:19.129Z,94.64
2022-10-22T23:26:05.071Z,94.92
2022-10-22T23:28:42.844Z,94.63
2022-10-22T23:31:12.997Z,94.69
2022-10-22T23:33:39.547Z,94.50
2022-10-22T23:36:08.865Z,94.57
2022-10-22T23:38:56.053Z,94.67
2022-10-22T23:41:22.441Z,94.59
2022-10-22T23:44:12.141Z,94.63
2022-10-22T23:46:39.179Z,94.73
2022-10-22T23:49:23.984Z,94.65
2022-10-22T23:52:05.629Z,94.67
2022-10-22T23:54:31.979Z,94.47
2022-10-22T23:56:58.328Z,94.57
2022-10-22T23:59:24.735Z,94.63
